sensor_id;sensor_type;location;lat;lon;timestamp;pressure;altitude;pressure_sealevel;temperature
73734;BMP280;62039;50.000;9.064;2022-08-01T00:00:42;100258.81;;;23.94
73734;BMP280;62039;50.000;9.064;2022-08-01T00:03:08;100258.28;;;23.92
73734;BMP280;62039;50.000;9.064;2022-08-01T00:05:36;100262.00;;;23.91
73734;BMP280;62039;50.000;9.064;2022-08-01T00:08:03;100259.56;;;23.89
73734;BMP280;62039;50.000;9.064;2022-08-01T00:10:30;100261.94;;;23.85
73734;BMP280;62039;50.000;9.064;2022-08-01T00:12:56;100265.09;;;23.82
73734;BMP280;62039;50.000;9.064;2022-08-01T00:15:23;100267.19;;;23.80
73734;BMP280;62039;50.000;9.064;2022-08-01T00:17:50;100271.72;;;23.80
73734;BMP280;62039;50.000;9.064;2022-08-01T00:20:16;100277.88;;;23.80
73734;BMP280;62039;50.000;9.064;2022-08-01T00:22:44;100267.19;;;23.80
73734;BMP280;62039;50.000;9.064;2022-08-01T00:25:11;100276.25;;;23.79
73734;BMP280;62039;50.000;9.064;2022-08-01T00:27:37;100271.72;;;23.80
73734;BMP280;62039;50.000;9.064;2022-08-01T00:30:05;100261.34;;;23.78
73734;BMP280;62039;50.000;9.064;2022-08-01T00:32:39;100266.09;;;23.76
73734;BMP280;62039;50.000;9.064;2022-08-01T00:35:06;100266.09;;;23.76
73734;BMP280;62039;50.000;9.064;2022-08-01T00:37:33;100261.25;;;23.73
73734;BMP280;62039;50.000;9.064;2022-08-01T00:40:01;100266.06;;;23.71
73734;BMP280;62039;50.000;9.064;2022-08-01T00:42:27;100265.97;;;23.66
73734;BMP280;62039;50.000;9.064;2022-08-01T00:44:54;100271.00;;;23.63
73734;BMP280;62039;50.000;9.064;2022-08-01T00:47:20;100265.81;;;23.56
73734;BMP280;62039;50.000;9.064;2022-08-01T00:49:47;100276.97;;;23.53
73734;BMP280;62039;50.000;9.064;2022-08-01T00:52:14;100264.97;;;23.51
73734;BMP280;62039;50.000;9.064;2022-08-01T00:54:40;100260.91;;;23.48
73734;BMP280;62039;50.000;9.064;2022-08-01T00:57:08;100262.78;;;23.47
73734;BMP280;62039;50.000;9.064;2022-08-01T00:59:36;100264.09;;;23.45
73734;BMP280;62039;50.000;9.064;2022-08-01T01:02:05;100268.28;;;23.41
73734;BMP280;62039;50.000;9.064;2022-08-01T01:04:41;100267.19;;;23.37
73734;BMP280;62039;50.000;9.064;2022-08-01T01:07:13;100269.28;;;23.35
73734;BMP280;62039;50.000;9.064;2022-08-01T01:09:45;100273.50;;;23.31
73734;BMP280;62039;50.000;9.064;2022-08-01T01:12:22;100273.41;;;23.26
73734;BMP280;62039;50.000;9.064;2022-08-01T01:14:54;100265.09;;;23.22
73734;BMP280;62039;50.000;9.064;2022-08-01T01:17:28;100274.38;;;23.20
73734;BMP280;62039;50.000;9.064;2022-08-01T01:20:17;100272.69;;;23.14
73734;BMP280;62039;50.000;9.064;2022-08-01T01:22:57;100272.16;;;23.12
73734;BMP280;62039;50.000;9.064;2022-08-01T01:25:46;100270.53;;;23.11
73734;BMP280;62039;50.000;9.064;2022-08-01T01:28:20;100280.88;;;23.07
73734;BMP280;62039;50.000;9.064;2022-08-01T01:30:51;100282.16;;;23.04
73734;BMP280;62039;50.000;9.064;2022-08-01T01:33:20;100290.63;;;23.01
73734;BMP280;62039;50.000;9.064;2022-08-01T01:35:51;100282.03;;;22.99
73734;BMP280;62039;50.000;9.064;2022-08-01T01:38:22;100284.16;;;22.97
73734;BMP280;62039;50.000;9.064;2022-08-01T01:40:51;100288.94;;;22.95
73734;BMP280;62039;50.000;9.064;2022-08-01T01:43:18;100297.38;;;22.92
73734;BMP280;62039;50.000;9.064;2022-08-01T01:45:48;100299.50;;;22.90
73734;BMP280;62039;50.000;9.064;2022-08-01T01:48:19;100295.69;;;22.86
73734;BMP280;62039;50.000;9.064;2022-08-01T01:50:47;100294.56;;;22.82
73734;BMP280;62039;50.000;9.064;2022-08-01T01:53:18;100301.19;;;22.80
73734;BMP280;62039;50.000;9.064;2022-08-01T01:55:48;100296.59;;;22.75
73734;BMP280;62039;50.000;9.064;2022-08-01T01:58:17;100299.19;;;22.70
73734;BMP280;62039;50.000;9.064;2022-08-01T02:00:46;100294.31;;;22.67
73734;BMP280;62039;50.000;9.064;2022-08-01T02:03:18;100300.16;;;22.64
73734;BMP280;62039;50.000;9.064;2022-08-01T02:05:46;100289.97;;;22.61
73734;BMP280;62039;50.000;9.064;2022-08-01T02:08:15;100295.75;;;22.58
73734;BMP280;62039;50.000;9.064;2022-08-01T02:10:42;100298.91;;;22.55
73734;BMP280;62039;50.000;9.064;2022-08-01T02:13:10;100300.44;;;22.51
73734;BMP280;62039;50.000;9.064;2022-08-01T02:15:37;100302.50;;;22.49
73734;BMP280;62039;50.000;9.064;2022-08-01T02:18:25;100304.59;;;22.47
73734;BMP280;62039;50.000;9.064;2022-08-01T02:20:53;100301.34;;;22.45
73734;BMP280;62039;50.000;9.064;2022-08-01T02:23:20;100303.47;;;22.43
73734;BMP280;62039;50.000;9.064;2022-08-01T02:25:50;100302.88;;;22.41
73734;BMP280;62039;50.000;9.064;2022-08-01T02:28:41;100305.22;;;22.37
73734;BMP280;62039;50.000;9.064;2022-08-01T02:31:12;100303.84;;;22.35
73734;BMP280;62039;50.000;9.064;2022-08-01T02:33:44;100312.28;;;22.31
73734;BMP280;62039;50.000;9.064;2022-08-01T02:36:12;100305.84;;;22.27
73734;BMP280;62039;50.000;9.064;2022-08-01T02:39:00;100305.53;;;22.24
73734;BMP280;62039;50.000;9.064;2022-08-01T02:41:29;100303.09;;;22.22
73734;BMP280;62039;50.000;9.064;2022-08-01T02:43:59;100298.81;;;22.21
73734;BMP280;62039;50.000;9.064;2022-08-01T02:46:31;100300.66;;;22.21
73734;BMP280;62039;50.000;9.064;2022-08-01T02:49:02;100305.97;;;22.21
73734;BMP280;62039;50.000;9.064;2022-08-01T02:51:32;100306.78;;;22.21
73734;BMP280;62039;50.000;9.064;2022-08-01T02:54:02;100305.16;;;22.20
73734;BMP280;62039;50.000;9.064;2022-08-01T02:56:31;100306.78;;;22.21
73734;BMP280;62039;50.000;9.064;2022-08-01T02:58:58;100306.78;;;22.21
73734;BMP280;62039;50.000;9.064;2022-08-01T03:01:25;100308.41;;;22.22
73734;BMP280;62039;50.000;9.064;2022-08-01T03:03:55;100308.41;;;22.22
73734;BMP280;62039;50.000;9.064;2022-08-01T03:06:24;100314.53;;;22.23
73734;BMP280;62039;50.000;9.064;2022-08-01T03:08:52;100308.41;;;22.22
73734;BMP280;62039;50.000;9.064;2022-08-01T03:11:20;100310.25;;;22.22
73734;BMP280;62039;50.000;9.064;2022-08-01T03:13:48;100302.28;;;22.22
73734;BMP280;62039;50.000;9.064;2022-08-01T03:16:16;100308.41;;;22.22
73734;BMP280;62039;50.000;9.064;2022-08-01T03:18:44;100305.97;;;22.21
73734;BMP280;62039;50.000;9.064;2022-08-01T03:21:13;100305.16;;;22.20
73734;BMP280;62039;50.000;9.064;2022-08-01T03:23:42;100315.00;;;22.20
73734;BMP280;62039;50.000;9.064;2022-08-01T03:26:09;100316.03;;;22.19
73734;BMP280;62039;50.000;9.064;2022-08-01T03:28:38;100312.56;;;22.18
73734;BMP280;62039;50.000;9.064;2022-08-01T03:31:05;100317.09;;;22.18
73734;BMP280;62039;50.000;9.064;2022-08-01T03:33:32;100312.56;;;22.18
73734;BMP280;62039;50.000;9.064;2022-08-01T03:36:00;100315.22;;;22.18
73734;BMP280;62039;50.000;9.064;2022-08-01T03:38:31;100315.50;;;22.17
73734;BMP280;62039;50.000;9.064;2022-08-01T03:41:04;100315.50;;;22.17
73734;BMP280;62039;50.000;9.064;2022-08-01T03:43:37;100319.19;;;22.16
73734;BMP280;62039;50.000;9.064;2022-08-01T03:46:06;100324.50;;;22.16
73734;BMP280;62039;50.000;9.064;2022-08-01T03:48:37;100329.03;;;22.15
73734;BMP280;62039;50.000;9.064;2022-08-01T03:51:06;100329.47;;;22.12
73734;BMP280;62039;50.000;9.064;2022-08-01T03:53:34;100327.88;;;22.11
73734;BMP280;62039;50.000;9.064;2022-08-01T03:56:08;100333.19;;;22.11
73734;BMP280;62039;50.000;9.064;2022-08-01T03:58:36;100319.88;;;22.11
73734;BMP280;62039;50.000;9.064;2022-08-01T04:01:05;100321.72;;;22.11
73734;BMP280;62039;50.000;9.064;2022-08-01T04:03:41;100321.72;;;22.11
73734;BMP280;62039;50.000;9.064;2022-08-01T04:06:08;100325.19;;;22.11
73734;BMP280;62039;50.000;9.064;2022-08-01T04:08:35;100320.94;;;22.10
73734;BMP280;62039;50.000;9.064;2022-08-01T04:11:02;100318.28;;;22.10
73734;BMP280;62039;50.000;9.064;2022-08-01T04:13:30;100320.94;;;22.10
73734;BMP280;62039;50.000;9.064;2022-08-01T04:16:03;100328.34;;;22.08
73734;BMP280;62039;50.000;9.064;2022-08-01T04:18:29;100330.19;;;22.08
73734;BMP280;62039;50.000;9.064;2022-08-01T04:20:56;100330.19;;;22.08
73734;BMP280;62039;50.000;9.064;2022-08-01T04:23:25;100332.88;;;22.08
73734;BMP280;62039;50.000;9.064;2022-08-01T04:25:55;100332.88;;;22.08
73734;BMP280;62039;50.000;9.064;2022-08-01T04:28:22;100324.88;;;22.08
73734;BMP280;62039;50.000;9.064;2022-08-01T04:30:54;100333.66;;;22.08
73734;BMP280;62039;50.000;9.064;2022-08-01T04:33:28;100333.66;;;22.08
73734;BMP280;62039;50.000;9.064;2022-08-01T04:35:56;100340.84;;;22.08
73734;BMP280;62039;50.000;9.064;2022-08-01T04:38:32;100341.66;;;22.08
73734;BMP280;62039;50.000;9.064;2022-08-01T04:40:59;100340.84;;;22.08
73734;BMP280;62039;50.000;9.064;2022-08-01T04:43:35;100344.31;;;22.08
73734;BMP280;62039;50.000;9.064;2022-08-01T04:46:05;100343.28;;;22.09
73734;BMP280;62039;50.000;9.064;2022-08-01T04:48:34;100340.59;;;22.09
73734;BMP280;62039;50.000;9.064;2022-08-01T04:51:02;100350.44;;;22.09
73734;BMP280;62039;50.000;9.064;2022-08-01T04:53:29;100340.59;;;22.09
73734;BMP280;62039;50.000;9.064;2022-08-01T04:55:56;100337.94;;;22.09
73734;BMP280;62039;50.000;9.064;2022-08-01T04:58:22;100342.22;;;22.10
73734;BMP280;62039;50.000;9.064;2022-08-01T05:00:49;100346.75;;;22.10
73734;BMP280;62039;50.000;9.064;2022-08-01T05:03:17;100347.56;;;22.10
73734;BMP280;62039;50.000;9.064;2022-08-01T05:05:44;100344.88;;;22.10
73734;BMP280;62039;50.000;9.064;2022-08-01T05:08:10;100349.13;;;22.11
73734;BMP280;62039;50.000;9.064;2022-08-01T05:10:37;100349.13;;;22.11
73734;BMP280;62039;50.000;9.064;2022-08-01T05:13:03;100347.28;;;22.12
73734;BMP280;62039;50.000;9.064;2022-08-01T05:15:30;100347.06;;;22.13
73734;BMP280;62039;50.000;9.064;2022-08-01T05:17:57;100349.72;;;22.13
73734;BMP280;62039;50.000;9.064;2022-08-01T05:20:24;100348.69;;;22.14
73734;BMP280;62039;50.000;9.064;2022-08-01T05:22:51;100364.63;;;22.14
73734;BMP280;62039;50.000;9.064;2022-08-01T05:25:18;100360.13;;;22.15
73734;BMP280;62039;50.000;9.064;2022-08-01T05:27:46;100365.69;;;22.13
73734;BMP280;62039;50.000;9.064;2022-08-01T05:30:14;100361.41;;;22.12
73734;BMP280;62039;50.000;9.064;2022-08-01T05:32:41;100366.72;;;22.12
73734;BMP280;62039;50.000;9.064;2022-08-01T05:35:08;100369.16;;;22.14
73734;BMP280;62039;50.000;9.064;2022-08-01T05:37:36;100369.47;;;22.17
73734;BMP280;62039;50.000;9.064;2022-08-01T05:40:04;100374.34;;;22.20
73734;BMP280;62039;50.000;9.064;2022-08-01T05:42:31;100371.22;;;22.23
73734;BMP280;62039;50.000;9.064;2022-08-01T05:44:57;100374.19;;;22.27
73734;BMP280;62039;50.000;9.064;2022-08-01T05:47:24;100374.06;;;22.33
73734;BMP280;62039;50.000;9.064;2022-08-01T05:49:50;100381.09;;;22.40
73734;BMP280;62039;50.000;9.064;2022-08-01T05:52:17;100368.94;;;22.44
73734;BMP280;62039;50.000;9.064;2022-08-01T05:54:45;100377.47;;;22.46
73734;BMP280;62039;50.000;9.064;2022-08-01T05:57:11;100366.59;;;22.47
73734;BMP280;62039;50.000;9.064;2022-08-01T05:59:40;100373.34;;;22.50
73734;BMP280;62039;50.000;9.064;2022-08-01T06:02:06;100372.84;;;22.53
73734;BMP280;62039;50.000;9.064;2022-08-01T06:04:33;100376.69;;;22.57
73734;BMP280;62039;50.000;9.064;2022-08-01T06:07:00;100389.03;;;22.63
73734;BMP280;62039;50.000;9.064;2022-08-01T06:09:27;100382.75;;;22.69
73734;BMP280;62039;50.000;9.064;2022-08-01T06:11:55;100389.78;;;22.75
73734;BMP280;62039;50.000;9.064;2022-08-01T06:14:21;100388.22;;;22.79
73734;BMP280;62039;50.000;9.064;2022-08-01T06:16:48;100386.72;;;22.83
73734;BMP280;62039;50.000;9.064;2022-08-01T06:19:14;100391.31;;;22.88
73734;BMP280;62039;50.000;9.064;2022-08-01T06:21:41;100391.41;;;22.93
73734;BMP280;62039;50.000;9.064;2022-08-01T06:24:07;100399.25;;;22.99
73734;BMP280;62039;50.000;9.064;2022-08-01T06:26:34;100393.22;;;23.04
73734;BMP280;62039;50.000;9.064;2022-08-01T06:29:02;100399.69;;;23.08
73734;BMP280;62039;50.000;9.064;2022-08-01T06:31:29;100400.25;;;23.10
73734;BMP280;62039;50.000;9.064;2022-08-01T06:33:59;100398.50;;;23.16
73734;BMP280;62039;50.000;9.064;2022-08-01T06:36:26;100397.75;;;23.20
73734;BMP280;62039;50.000;9.064;2022-08-01T06:38:52;100399.59;;;23.20
73734;BMP280;62039;50.000;9.064;2022-08-01T06:41:19;100407.59;;;23.20
73734;BMP280;62039;50.000;9.064;2022-08-01T06:43:45;100394.28;;;23.20
73734;BMP280;62039;50.000;9.064;2022-08-01T06:46:13;100403.88;;;23.21
73734;BMP280;62039;50.000;9.064;2022-08-01T06:48:40;100408.19;;;23.22
73734;BMP280;62039;50.000;9.064;2022-08-01T06:51:06;100406.09;;;23.24
73734;BMP280;62039;50.000;9.064;2022-08-01T06:53:33;100411.97;;;23.26
73734;BMP280;62039;50.000;9.064;2022-08-01T06:56:02;100411.50;;;23.29
73734;BMP280;62039;50.000;9.064;2022-08-01T06:58:29;100414.97;;;23.29
73734;BMP280;62039;50.000;9.064;2022-08-01T07:00:57;100417.38;;;23.31
73734;BMP280;62039;50.000;9.064;2022-08-01T07:03:26;100428.84;;;23.31
73734;BMP280;62039;50.000;9.064;2022-08-01T07:06:12;100424.81;;;23.29
73734;BMP280;62039;50.000;9.064;2022-08-01T07:08:40;100424.22;;;23.27
73734;BMP280;62039;50.000;9.064;2022-08-01T07:11:07;100424.47;;;23.25
73734;BMP280;62039;50.000;9.064;2022-08-01T07:13:34;100424.47;;;23.25
73734;BMP280;62039;50.000;9.064;2022-08-01T07:16:09;100421.72;;;23.20
73734;BMP280;62039;50.000;9.064;2022-08-01T07:18:37;100418.25;;;23.20
73734;BMP280;62039;50.000;9.064;2022-08-01T07:21:04;100421.19;;;23.18
73734;BMP280;62039;50.000;9.064;2022-08-01T07:23:31;100417.72;;;23.18
73734;BMP280;62039;50.000;9.064;2022-08-01T07:26:03;100413.97;;;23.19
73734;BMP280;62039;50.000;9.064;2022-08-01T07:28:30;100416.41;;;23.20
73734;BMP280;62039;50.000;9.064;2022-08-01T07:30:56;100407.94;;;23.23
73734;BMP280;62039;50.000;9.064;2022-08-01T07:33:23;100417.28;;;23.26
73734;BMP280;62039;50.000;9.064;2022-08-01T07:35:51;100413.09;;;23.30
73734;BMP280;62039;50.000;9.064;2022-08-01T07:38:17;100405.19;;;23.35
73734;BMP280;62039;50.000;9.064;2022-08-01T07:40:44;100410.03;;;23.38
73734;BMP280;62039;50.000;9.064;2022-08-01T07:43:11;100408.50;;;23.42
73734;BMP280;62039;50.000;9.064;2022-08-01T07:45:37;100416.56;;;23.47
73734;BMP280;62039;50.000;9.064;2022-08-01T07:48:10;100407.03;;;23.51
73734;BMP280;62039;50.000;9.064;2022-08-01T07:50:37;100418.34;;;23.58
73734;BMP280;62039;50.000;9.064;2022-08-01T07:53:05;100409.63;;;23.63
73734;BMP280;62039;50.000;9.064;2022-08-01T07:55:32;100416.09;;;23.67
73734;BMP280;62039;50.000;9.064;2022-08-01T07:57:58;100412.69;;;23.71
73734;BMP280;62039;50.000;9.064;2022-08-01T08:00:25;100409.28;;;23.76
73734;BMP280;62039;50.000;9.064;2022-08-01T08:02:51;100410.41;;;23.80
73734;BMP280;62039;50.000;9.064;2022-08-01T08:05:18;100406.22;;;23.84
73734;BMP280;62039;50.000;9.064;2022-08-01T08:08:06;100410.56;;;23.90
73734;BMP280;62039;50.000;9.064;2022-08-01T08:10:33;100404.47;;;23.95
73734;BMP280;62039;50.000;9.064;2022-08-01T08:13:00;100409.38;;;24.03
73734;BMP280;62039;50.000;9.064;2022-08-01T08:15:27;100411.63;;;24.11
73734;BMP280;62039;50.000;9.064;2022-08-01T08:17:54;100396.50;;;24.16
73734;BMP280;62039;50.000;9.064;2022-08-01T08:20:20;100400.09;;;24.27
73734;BMP280;62039;50.000;9.064;2022-08-01T08:22:47;100398.13;;;24.39
73734;BMP280;62039;50.000;9.064;2022-08-01T08:25:15;100392.38;;;24.52
73734;BMP280;62039;50.000;9.064;2022-08-01T08:27:41;100393.56;;;24.66
73734;BMP280;62039;50.000;9.064;2022-08-01T08:30:09;100391.09;;;24.82
73734;BMP280;62039;50.000;9.064;2022-08-01T08:32:36;100395.00;;;25.01
73734;BMP280;62039;50.000;9.064;2022-08-01T08:35:03;100387.09;;;25.16
73734;BMP280;62039;50.000;9.064;2022-08-01T08:37:30;100390.47;;;25.33
73734;BMP280;62039;50.000;9.064;2022-08-01T08:40:06;100389.00;;;25.53
73734;BMP280;62039;50.000;9.064;2022-08-01T08:42:34;100382.19;;;25.72
73734;BMP280;62039;50.000;9.064;2022-08-01T08:45:01;100381.47;;;25.92
73734;BMP280;62039;50.000;9.064;2022-08-01T08:47:32;100386.09;;;26.11
73734;BMP280;62039;50.000;9.064;2022-08-01T08:49:59;100384.03;;;26.29
73734;BMP280;62039;50.000;9.064;2022-08-01T08:52:26;100382.50;;;26.48
73734;BMP280;62039;50.000;9.064;2022-08-01T08:54:54;100386.81;;;26.69
73734;BMP280;62039;50.000;9.064;2022-08-01T08:57:22;100385.25;;;26.88
73734;BMP280;62039;50.000;9.064;2022-08-01T08:59:50;100381.22;;;27.06
73734;BMP280;62039;50.000;9.064;2022-08-01T09:02:17;100387.69;;;27.25
73734;BMP280;62039;50.000;9.064;2022-08-01T09:04:43;100384.16;;;27.45
73734;BMP280;62039;50.000;9.064;2022-08-01T09:07:10;100382.22;;;27.66
73734;BMP280;62039;50.000;9.064;2022-08-01T09:09:37;100373.34;;;27.86
73734;BMP280;62039;50.000;9.064;2022-08-01T09:12:07;100380.75;;;28.04
73734;BMP280;62039;50.000;9.064;2022-08-01T09:14:44;100377.50;;;28.22
73734;BMP280;62039;50.000;9.064;2022-08-01T09:17:12;100376.13;;;28.30
73734;BMP280;62039;50.000;9.064;2022-08-01T09:19:41;100378.78;;;28.35
73734;BMP280;62039;50.000;9.064;2022-08-01T09:22:09;100381.72;;;28.33
73734;BMP280;62039;50.000;9.064;2022-08-01T09:24:37;100377.97;;;28.34
73734;BMP280;62039;50.000;9.064;2022-08-01T09:27:15;100381.69;;;28.43
73734;BMP280;62039;50.000;9.064;2022-08-01T09:29:42;100368.44;;;28.52
73734;BMP280;62039;50.000;9.064;2022-08-01T09:32:09;100373.75;;;28.62
73734;BMP280;62039;50.000;9.064;2022-08-01T09:34:42;100375.88;;;28.70
73734;BMP280;62039;50.000;9.064;2022-08-01T09:37:12;100374.50;;;28.73
73734;BMP280;62039;50.000;9.064;2022-08-01T09:39:39;100376.13;;;28.74
73734;BMP280;62039;50.000;9.064;2022-08-01T09:42:19;100378.31;;;28.67
73734;BMP280;62039;50.000;9.064;2022-08-01T09:44:53;100382.69;;;28.52
73734;BMP280;62039;50.000;9.064;2022-08-01T09:47:21;100377.88;;;28.44
73734;BMP280;62039;50.000;9.064;2022-08-01T09:49:55;100384.38;;;28.38
73734;BMP280;62039;50.000;9.064;2022-08-01T09:52:24;100380.63;;;28.39
73734;BMP280;62039;50.000;9.064;2022-08-01T09:54:56;100386.25;;;28.43
73734;BMP280;62039;50.000;9.064;2022-08-01T09:57:23;100388.38;;;28.46
73734;BMP280;62039;50.000;9.064;2022-08-01T09:59:51;100374.91;;;28.51
73734;BMP280;62039;50.000;9.064;2022-08-01T10:02:30;100374.88;;;28.56
73734;BMP280;62039;50.000;9.064;2022-08-01T10:04:59;100377.81;;;28.60
73734;BMP280;62039;50.000;9.064;2022-08-01T10:07:33;100376.72;;;28.66
73734;BMP280;62039;50.000;9.064;2022-08-01T10:10:11;100373.38;;;28.79
73734;BMP280;62039;50.000;9.064;2022-08-01T10:12:40;100370.56;;;28.94
73734;BMP280;62039;50.000;9.064;2022-08-01T10:15:14;100363.19;;;29.10
73734;BMP280;62039;50.000;9.064;2022-08-01T10:17:47;100360.34;;;29.25
73734;BMP280;62039;50.000;9.064;2022-08-01T10:20:24;100362.91;;;29.40
73734;BMP280;62039;50.000;9.064;2022-08-01T10:22:59;100361.66;;;29.56
73734;BMP280;62039;50.000;9.064;2022-08-01T10:25:28;100359.91;;;29.71
73734;BMP280;62039;50.000;9.064;2022-08-01T10:28:14;100349.53;;;29.83
73734;BMP280;62039;50.000;9.064;2022-08-01T10:30:49;100353.97;;;29.92
73734;BMP280;62039;50.000;9.064;2022-08-01T10:33:18;100348.22;;;30.04
73734;BMP280;62039;50.000;9.064;2022-08-01T10:36:06;100357.44;;;30.17
73734;BMP280;62039;50.000;9.064;2022-08-01T10:38:34;100355.63;;;30.31
73734;BMP280;62039;50.000;9.064;2022-08-01T10:41:03;100351.13;;;30.45
73734;BMP280;62039;50.000;9.064;2022-08-01T10:43:33;100352.78;;;30.60
73734;BMP280;62039;50.000;9.064;2022-08-01T10:46:02;100351.25;;;30.72
73734;BMP280;62039;50.000;9.064;2022-08-01T10:48:34;100363.97;;;30.86
73734;BMP280;62039;50.000;9.064;2022-08-01T10:51:05;100357.34;;;30.97
73734;BMP280;62039;50.000;9.064;2022-08-01T10:53:47;100360.34;;;31.09
73734;BMP280;62039;50.000;9.064;2022-08-01T10:56:16;100349.97;;;31.16
73734;BMP280;62039;50.000;9.064;2022-08-01T10:58:43;100351.19;;;31.23
73734;BMP280;62039;50.000;9.064;2022-08-01T11:01:24;100344.88;;;31.28
73734;BMP280;62039;50.000;9.064;2022-08-01T11:04:12;100343.22;;;31.32
73734;BMP280;62039;50.000;9.064;2022-08-01T11:06:49;100341.41;;;31.41
73734;BMP280;62039;50.000;9.064;2022-08-01T11:09:30;100335.59;;;31.34
73734;BMP280;62039;50.000;9.064;2022-08-01T11:12:06;100338.78;;;31.22
73734;BMP280;62039;50.000;9.064;2022-08-01T11:14:33;100330.09;;;31.12
73734;BMP280;62039;50.000;9.064;2022-08-01T11:17:30;100337.38;;;30.98
73734;BMP280;62039;50.000;9.064;2022-08-01T11:20:05;100332.09;;;30.88
73734;BMP280;62039;50.000;9.064;2022-08-01T11:26:08;100333.53;;;30.66
73734;BMP280;62039;50.000;9.064;2022-08-01T11:28:36;100339.03;;;30.61
73734;BMP280;62039;50.000;9.064;2022-08-01T11:31:25;100335.41;;;30.52
73734;BMP280;62039;50.000;9.064;2022-08-01T11:33:53;100335.75;;;30.45
73734;BMP280;62039;50.000;9.064;2022-08-01T11:36:20;100334.19;;;30.39
73734;BMP280;62039;50.000;9.064;2022-08-01T11:39:14;100333.50;;;30.34
73734;BMP280;62039;50.000;9.064;2022-08-01T11:41:42;100327.38;;;30.28
73734;BMP280;62039;50.000;9.064;2022-08-01T11:44:12;100327.75;;;30.22
73734;BMP280;62039;50.000;9.064;2022-08-01T11:46:51;100332.13;;;30.18
73734;BMP280;62039;50.000;9.064;2022-08-01T11:49:34;100330.59;;;30.12
73734;BMP280;62039;50.000;9.064;2022-08-01T11:52:04;100324.97;;;30.08
73734;BMP280;62039;50.000;9.064;2022-08-01T11:54:35;100330.44;;;30.03
73734;BMP280;62039;50.000;9.064;2022-08-01T11:57:04;100325.09;;;29.98
73734;BMP280;62039;50.000;9.064;2022-08-01T11:59:37;100327.03;;;29.92
73734;BMP280;62039;50.000;9.064;2022-08-01T12:02:21;100321.22;;;29.85
73734;BMP280;62039;50.000;9.064;2022-08-01T12:04:57;100313.72;;;29.82
73734;BMP280;62039;50.000;9.064;2022-08-01T12:07:26;100313.44;;;29.84
73734;BMP280;62039;50.000;9.064;2022-08-01T12:10:03;100303.78;;;29.83
73734;BMP280;62039;50.000;9.064;2022-08-01T12:12:31;100305.88;;;29.86
73734;BMP280;62039;50.000;9.064;2022-08-01T12:14:59;100301.16;;;29.96
73734;BMP280;62039;50.000;9.064;2022-08-01T12:17:34;100300.97;;;30.12
73734;BMP280;62039;50.000;9.064;2022-08-01T12:20:03;100300.44;;;30.28
73734;BMP280;62039;50.000;9.064;2022-08-01T12:22:31;100295.03;;;30.47
73734;BMP280;62039;50.000;9.064;2022-08-01T12:25:06;100290.94;;;30.68
73734;BMP280;62039;50.000;9.064;2022-08-01T12:27:34;100286.28;;;30.88
73734;BMP280;62039;50.000;9.064;2022-08-01T12:30:03;100281.63;;;31.07
73734;BMP280;62039;50.000;9.064;2022-08-01T12:32:33;100274.25;;;31.26
73734;BMP280;62039;50.000;9.064;2022-08-01T12:35:03;100275.78;;;31.46
73734;BMP280;62039;50.000;9.064;2022-08-01T12:37:30;100271.53;;;31.67
73734;BMP280;62039;50.000;9.064;2022-08-01T12:39:57;100269.81;;;31.85
73734;BMP280;62039;50.000;9.064;2022-08-01T12:42:25;100270.47;;;32.04
73734;BMP280;62039;50.000;9.064;2022-08-01T12:44:53;100272.50;;;32.21
73734;BMP280;62039;50.000;9.064;2022-08-01T12:47:20;100262.88;;;32.28
73734;BMP280;62039;50.000;9.064;2022-08-01T12:49:47;100257.03;;;32.35
73734;BMP280;62039;50.000;9.064;2022-08-01T12:52:15;100258.19;;;32.43
73734;BMP280;62039;50.000;9.064;2022-08-01T12:55:01;100251.56;;;32.49
73734;BMP280;62039;50.000;9.064;2022-08-01T12:57:29;100251.91;;;32.56
73734;BMP280;62039;50.000;9.064;2022-08-01T13:00:08;100255.47;;;32.65
73734;BMP280;62039;50.000;9.064;2022-08-01T13:02:36;100251.88;;;32.69
73734;BMP280;62039;50.000;9.064;2022-08-01T13:05:04;100250.63;;;32.75
73734;BMP280;62039;50.000;9.064;2022-08-01T13:07:36;100246.50;;;32.78
73734;BMP280;62039;50.000;9.064;2022-08-01T13:10:12;100243.81;;;32.78
73734;BMP280;62039;50.000;9.064;2022-08-01T13:12:51;100243.81;;;32.78
73734;BMP280;62039;50.000;9.064;2022-08-01T13:15:21;100243.31;;;32.76
73734;BMP280;62039;50.000;9.064;2022-08-01T13:17:48;100249.03;;;32.74
73734;BMP280;62039;50.000;9.064;2022-08-01T13:20:22;100238.22;;;32.74
73734;BMP280;62039;50.000;9.064;2022-08-01T13:22:49;100243.44;;;32.71
73734;BMP280;62039;50.000;9.064;2022-08-01T13:25:16;100237.38;;;32.65
73734;BMP280;62039;50.000;9.064;2022-08-01T13:27:48;100244.50;;;32.61
73734;BMP280;62039;50.000;9.064;2022-08-01T13:30:20;100233.50;;;32.58
73734;BMP280;62039;50.000;9.064;2022-08-01T13:32:57;100234.09;;;32.55
73734;BMP280;62039;50.000;9.064;2022-08-01T13:35:24;100240.94;;;32.52
73734;BMP280;62039;50.000;9.064;2022-08-01T13:37:51;100238.53;;;32.51
73734;BMP280;62039;50.000;9.064;2022-08-01T13:40:24;100241.53;;;32.49
73734;BMP280;62039;50.000;9.064;2022-08-01T13:42:52;100230.56;;;32.46
73734;BMP280;62039;50.000;9.064;2022-08-01T13:45:19;100234.38;;;32.45
73734;BMP280;62039;50.000;9.064;2022-08-01T13:47:48;100235.78;;;32.42
73734;BMP280;62039;50.000;9.064;2022-08-01T13:50:34;100236.84;;;32.32
73734;BMP280;62039;50.000;9.064;2022-08-01T13:53:01;100233.47;;;32.27
73734;BMP280;62039;50.000;9.064;2022-08-01T13:55:27;100236.78;;;32.24
73734;BMP280;62039;50.000;9.064;2022-08-01T13:58:02;100239.28;;;32.20
73734;BMP280;62039;50.000;9.064;2022-08-01T14:00:28;100230.69;;;32.18
73734;BMP280;62039;50.000;9.064;2022-08-01T14:02:55;100233.69;;;32.17
73734;BMP280;62039;50.000;9.064;2022-08-01T14:05:22;100234.00;;;32.15
73734;BMP280;62039;50.000;9.064;2022-08-01T14:07:48;100232.41;;;32.14
73734;BMP280;62039;50.000;9.064;2022-08-01T14:10:15;100222.72;;;32.13
73734;BMP280;62039;50.000;9.064;2022-08-01T14:12:45;100235.13;;;32.14
73734;BMP280;62039;50.000;9.064;2022-08-01T14:15:14;100225.09;;;32.15